sensor_id;sensor_type;location;lat;lon;timestamp;pressure;altitude;pressure_sealevel;temperature
71807;BMP280;59655;42.590;23.364;2023-03-01T00:02:20;91882.06;;;7.43
71807;BMP280;59655;42.590;23.364;2023-03-01T00:04:46;91884.41;;;7.47
71807;BMP280;59655;42.590;23.364;2023-03-01T00:07:12;91873.13;;;7.46
71807;BMP280;59655;42.590;23.364;2023-03-01T00:09:38;91873.13;;;7.46
71807;BMP280;59655;42.590;23.364;2023-03-01T00:12:06;91875.97;;;7.48
71807;BMP280;59655;42.590;23.364;2023-03-01T00:14:31;91876.50;;;7.47
71807;BMP280;59655;42.590;23.364;2023-03-01T00:16:57;91875.97;;;7.48
71807;BMP280;59655;42.590;23.364;2023-03-01T00:19:22;91867.13;;;7.46
71807;BMP280;59655;42.590;23.364;2023-03-01T00:21:48;91853.81;;;7.38
71807;BMP280;59655;42.590;23.364;2023-03-01T00:24:14;91854.72;;;7.41
71807;BMP280;59655;42.590;23.364;2023-03-01T00:26:39;91851.66;;;7.37
71807;BMP280;59655;42.590;23.364;2023-03-01T00:29:05;91848.22;;;7.42
71807;BMP280;59655;42.590;23.364;2023-03-01T00:31:32;91841.13;;;7.37
71807;BMP280;59655;42.590;23.364;2023-03-01T00:34:00;91842.13;;;7.33
71807;BMP280;59655;42.590;23.364;2023-03-01T00:36:35;91833.88;;;7.24
71807;BMP280;59655;42.590;23.364;2023-03-01T00:39:03;91832.34;;;7.28
71807;BMP280;59655;42.590;23.364;2023-03-01T00:41:29;91831.44;;;7.26
71807;BMP280;59655;42.590;23.364;2023-03-01T00:43:55;91837.91;;;7.25
71807;BMP280;59655;42.590;23.364;2023-03-01T00:46:24;91839.84;;;7.24
71807;BMP280;59655;42.590;23.364;2023-03-01T00:48:50;91839.22;;;7.18
71807;BMP280;59655;42.590;23.364;2023-03-01T00:51:16;91839.69;;;7.17
71807;BMP280;59655;42.590;23.364;2023-03-01T00:53:43;91836.78;;;7.20
71807;BMP280;59655;42.590;23.364;2023-03-01T00:56:11;91830.06;;;7.19
71807;BMP280;59655;42.590;23.364;2023-03-01T00:58:37;91834.22;;;7.15
71807;BMP280;59655;42.590;23.364;2023-03-01T01:03:46;91810.97;;;7.13
71807;BMP280;59655;42.590;23.364;2023-03-01T01:06:16;91810.63;;;7.22
71807;BMP280;59655;42.590;23.364;2023-03-01T01:08:42;91813.63;;;7.13
71807;BMP280;59655;42.590;23.364;2023-03-01T01:11:09;91813.13;;;7.15
71807;BMP280;59655;42.590;23.364;2023-03-01T01:13:35;91805.63;;;7.00
71807;BMP280;59655;42.590;23.364;2023-03-01T01:16:03;91811.63;;;7.00
71807;BMP280;59655;42.590;23.364;2023-03-01T01:18:28;91817.63;;;7.01
71807;BMP280;59655;42.590;23.364;2023-03-01T01:20:54;91819.09;;;6.96
71807;BMP280;59655;42.590;23.364;2023-03-01T01:23:19;91819.03;;;6.83
71807;BMP280;59655;42.590;23.364;2023-03-01T01:25:45;91824.34;;;6.77
71807;BMP280;59655;42.590;23.364;2023-03-01T01:28:10;91822.41;;;6.83
71807;BMP280;59655;42.590;23.364;2023-03-01T01:30:36;91818.66;;;6.92
71807;BMP280;59655;42.590;23.364;2023-03-01T01:33:01;91820.81;;;6.94
71807;BMP280;59655;42.590;23.364;2023-03-01T01:35:27;91824.16;;;6.75
71807;BMP280;59655;42.590;23.364;2023-03-01T01:37:52;91826.66;;;6.86
71807;BMP280;59655;42.590;23.364;2023-03-01T01:40:18;91825.75;;;6.84
71807;BMP280;59655;42.590;23.364;2023-03-01T01:42:43;91824.31;;;6.83
71807;BMP280;59655;42.590;23.364;2023-03-01T01:47:50;91825.97;;;6.86
71807;BMP280;59655;42.590;23.364;2023-03-01T01:50:17;91817.81;;;6.65
71807;BMP280;59655;42.590;23.364;2023-03-01T01:52:45;91815.09;;;6.70
71807;BMP280;59655;42.590;23.364;2023-03-01T01:55:15;91815.25;;;6.78
71807;BMP280;59655;42.590;23.364;2023-03-01T01:57:44;91819.53;;;6.81
71807;BMP280;59655;42.590;23.364;2023-03-01T02:00:14;91817.81;;;6.84
71807;BMP280;59655;42.590;23.364;2023-03-01T02:02:43;91818.59;;;6.79
71807;BMP280;59655;42.590;23.364;2023-03-01T02:05:20;91813.03;;;6.82
71807;BMP280;59655;42.590;23.364;2023-03-01T02:07:48;91798.88;;;6.85
71807;BMP280;59655;42.590;23.364;2023-03-01T02:10:14;91803.56;;;6.93
71807;BMP280;59655;42.590;23.364;2023-03-01T02:12:40;91793.34;;;6.89
71807;BMP280;59655;42.590;23.364;2023-03-01T02:15:06;91796.47;;;6.87
71807;BMP280;59655;42.590;23.364;2023-03-01T02:17:32;91810.50;;;6.77
71807;BMP280;59655;42.590;23.364;2023-03-01T02:20:26;91801.00;;;6.87
71807;BMP280;59655;42.590;23.364;2023-03-01T02:22:53;91802.94;;;6.86
71807;BMP280;59655;42.590;23.364;2023-03-01T02:25:27;91804.00;;;6.78
71807;BMP280;59655;42.590;23.364;2023-03-01T02:30:41;91814.41;;;6.70
71807;BMP280;59655;42.590;23.364;2023-03-01T02:33:28;91818.50;;;6.65
71807;BMP280;59655;42.590;23.364;2023-03-01T02:35:59;91823.16;;;6.78
71807;BMP280;59655;42.590;23.364;2023-03-01T02:38:26;91822.44;;;6.78
71807;BMP280;59655;42.590;23.364;2023-03-01T02:40:52;91820.59;;;6.73
71807;BMP280;59655;42.590;23.364;2023-03-01T02:43:21;91820.81;;;6.75
71807;BMP280;59655;42.590;23.364;2023-03-01T02:45:49;91815.53;;;6.75
71807;BMP280;59655;42.590;23.364;2023-03-01T02:48:15;91824.69;;;6.74
71807;BMP280;59655;42.590;23.364;2023-03-01T02:53:18;91820.66;;;6.67
71807;BMP280;59655;42.590;23.364;2023-03-01T02:55:49;91821.88;;;6.66
71807;BMP280;59655;42.590;23.364;2023-03-01T02:58:15;91820.16;;;6.68
71807;BMP280;59655;42.590;23.364;2023-03-01T03:00:42;91824.28;;;6.64
71807;BMP280;59655;42.590;23.364;2023-03-01T03:03:21;91822.38;;;6.64
71807;BMP280;59655;42.590;23.364;2023-03-01T03:05:47;91811.63;;;6.62
71807;BMP280;59655;42.590;23.364;2023-03-01T03:08:14;91823.28;;;6.48
71807;BMP280;59655;42.590;23.364;2023-03-01T03:10:41;91824.63;;;6.36
71807;BMP280;59655;42.590;23.364;2023-03-01T03:13:12;91819.66;;;6.51
71807;BMP280;59655;42.590;23.364;2023-03-01T03:15:38;91818.75;;;6.48
71807;BMP280;59655;42.590;23.364;2023-03-01T03:18:07;91819.84;;;6.34
71807;BMP280;59655;42.590;23.364;2023-03-01T03:20:32;91823.69;;;6.52
71807;BMP280;59655;42.590;23.364;2023-03-01T03:22:58;91819.53;;;6.62
71807;BMP280;59655;42.590;23.364;2023-03-01T03:25:25;91819.72;;;6.64
71807;BMP280;59655;42.590;23.364;2023-03-01T03:27:52;91824.00;;;6.48
71807;BMP280;59655;42.590;23.364;2023-03-01T03:30:26;91817.88;;;6.59
71807;BMP280;59655;42.590;23.364;2023-03-01T03:32:52;91815.16;;;6.65
71807;BMP280;59655;42.590;23.364;2023-03-01T03:35:20;91812.13;;;6.61
71807;BMP280;59655;42.590;23.364;2023-03-01T03:37:46;91812.53;;;6.65
71807;BMP280;59655;42.590;23.364;2023-03-01T03:40:33;91819.03;;;6.64
71807;BMP280;59655;42.590;23.364;2023-03-01T03:43:00;91813.38;;;6.54
71807;BMP280;59655;42.590;23.364;2023-03-01T03:45:26;91822.44;;;6.59
71807;BMP280;59655;42.590;23.364;2023-03-01T03:47:53;91812.81;;;6.61
71807;BMP280;59655;42.590;23.364;2023-03-01T03:50:18;91822.38;;;6.64
71807;BMP280;59655;42.590;23.364;2023-03-01T03:52:44;91811.81;;;6.64
71807;BMP280;59655;42.590;23.364;2023-03-01T03:55:12;91822.38;;;6.64
71807;BMP280;59655;42.590;23.364;2023-03-01T03:57:39;91822.19;;;6.62
71807;BMP280;59655;42.590;23.364;2023-03-01T04:00:06;91824.00;;;6.67
71807;BMP280;59655;42.590;23.364;2023-03-01T04:02:42;91825.22;;;6.66
71807;BMP280;59655;42.590;23.364;2023-03-01T04:05:09;91827.63;;;6.64
71807;BMP280;59655;42.590;23.364;2023-03-01T04:07:36;91823.41;;;6.56
71807;BMP280;59655;42.590;23.364;2023-03-01T04:10:08;91828.47;;;6.54
71807;BMP280;59655;42.590;23.364;2023-03-01T04:12:34;91821.44;;;6.62
71807;BMP280;59655;42.590;23.364;2023-03-01T04:15:04;91827.50;;;6.57
71807;BMP280;59655;42.590;23.364;2023-03-01T04:17:46;91821.78;;;6.53
71807;BMP280;59655;42.590;23.364;2023-03-01T04:20:25;91820.28;;;6.57
71807;BMP280;59655;42.590;23.364;2023-03-01T04:23:00;91827.72;;;6.59
71807;BMP280;59655;42.590;23.364;2023-03-01T04:25:41;91822.69;;;6.36
71807;BMP280;59655;42.590;23.364;2023-03-01T04:28:08;91826.41;;;6.46
71807;BMP280;59655;42.590;23.364;2023-03-01T04:30:36;91827.34;;;6.49
71807;BMP280;59655;42.590;23.364;2023-03-01T04:33:05;91828.97;;;6.52
71807;BMP280;59655;42.590;23.364;2023-03-01T04:35:31;91831.31;;;6.56
71807;BMP280;59655;42.590;23.364;2023-03-01T04:37:57;91825.84;;;6.54
71807;BMP280;59655;42.590;23.364;2023-03-01T04:40:23;91819.63;;;6.32
71807;BMP280;59655;42.590;23.364;2023-03-01T04:42:48;91826.97;;;6.39
71807;BMP280;59655;42.590;23.364;2023-03-01T04:45:14;91832.44;;;6.41
71807;BMP280;59655;42.590;23.364;2023-03-01T04:47:41;91818.78;;;6.43
71807;BMP280;59655;42.590;23.364;2023-03-01T04:50:08;91819.34;;;6.36
71807;BMP280;59655;42.590;23.364;2023-03-01T04:52:34;91825.75;;;6.40
71807;BMP280;59655;42.590;23.364;2023-03-01T04:55:00;91816.38;;;6.45
71807;BMP280;59655;42.590;23.364;2023-03-01T04:57:26;91825.97;;;6.42
71807;BMP280;59655;42.590;23.364;2023-03-01T04:59:51;91820.91;;;6.44
71807;BMP280;59655;42.590;23.364;2023-03-01T05:02:17;91827.63;;;6.45
71807;BMP280;59655;42.590;23.364;2023-03-01T05:04:42;91827.34;;;6.49
71807;BMP280;59655;42.590;23.364;2023-03-01T05:07:08;91817.53;;;6.49
71807;BMP280;59655;42.590;23.364;2023-03-01T05:09:33;91822.34;;;6.45
71807;BMP280;59655;42.590;23.364;2023-03-01T05:11:59;91829.59;;;6.39
71807;BMP280;59655;42.590;23.364;2023-03-01T05:14:24;91823.50;;;6.50
71807;BMP280;59655;42.590;23.364;2023-03-01T05:16:50;91838.16;;;6.45
71807;BMP280;59655;42.590;23.364;2023-03-01T05:19:15;91828.16;;;6.38
71807;BMP280;59655;42.590;23.364;2023-03-01T05:21:42;91822.69;;;6.36
71807;BMP280;59655;42.590;23.364;2023-03-01T05:24:27;91822.63;;;6.42
71807;BMP280;59655;42.590;23.364;2023-03-01T05:26:53;91830.75;;;6.44
71807;BMP280;59655;42.590;23.364;2023-03-01T05:29:23;91827.19;;;6.41
71807;BMP280;59655;42.590;23.364;2023-03-01T05:34:28;91825.97;;;6.42
71807;BMP280;59655;42.590;23.364;2023-03-01T05:36:55;91833.13;;;6.47
71807;BMP280;59655;42.590;23.364;2023-03-01T05:39:21;91831.41;;;6.50
71807;BMP280;59655;42.590;23.364;2023-03-01T05:41:48;91828.53;;;6.48
71807;BMP280;59655;42.590;23.364;2023-03-01T05:44:16;91836.28;;;6.40
71807;BMP280;59655;42.590;23.364;2023-03-01T05:46:42;91829.81;;;6.41
71807;BMP280;59655;42.590;23.364;2023-03-01T05:49:07;91836.66;;;6.50
71807;BMP280;59655;42.590;23.364;2023-03-01T05:51:33;91840.75;;;6.51
71807;BMP280;59655;42.590;23.364;2023-03-01T05:53:59;91838.16;;;6.45
71807;BMP280;59655;42.590;23.364;2023-03-01T05:56:25;91845.09;;;6.48
71807;BMP280;59655;42.590;23.364;2023-03-01T05:58:50;91845.31;;;6.51
71807;BMP280;59655;42.590;23.364;2023-03-01T06:01:16;91852.25;;;6.48
71807;BMP280;59655;42.590;23.364;2023-03-01T06:03:41;91848.16;;;6.53
71807;BMP280;59655;42.590;23.364;2023-03-01T06:06:07;91855.28;;;6.58
71807;BMP280;59655;42.590;23.364;2023-03-01T06:08:32;91853.72;;;6.49
71807;BMP280;59655;42.590;23.364;2023-03-01T06:10:58;91855.47;;;6.41
71807;BMP280;59655;42.590;23.364;2023-03-01T06:13:24;91856.13;;;6.47
71807;BMP280;59655;42.590;23.364;2023-03-01T06:15:49;91860.31;;;6.56
71807;BMP280;59655;42.590;23.364;2023-03-01T06:18:15;91861.16;;;6.20
71807;BMP280;59655;42.590;23.364;2023-03-01T06:20:41;91860.44;;;6.44
71807;BMP280;59655;42.590;23.364;2023-03-01T06:23:06;91865.16;;;6.52
71807;BMP280;59655;42.590;23.364;2023-03-01T06:25:32;91862.25;;;6.55
71807;BMP280;59655;42.590;23.364;2023-03-01T06:27:57;91857.91;;;6.58
71807;BMP280;59655;42.590;23.364;2023-03-01T06:30:25;91863.44;;;6.54
71807;BMP280;59655;42.590;23.364;2023-03-01T06:32:50;91857.69;;;6.56
71807;BMP280;59655;42.590;23.364;2023-03-01T06:35:17;91861.53;;;6.55
71807;BMP280;59655;42.590;23.364;2023-03-01T06:37:43;91862.97;;;6.56
71807;BMP280;59655;42.590;23.364;2023-03-01T06:40:10;91862.91;;;6.61
71807;BMP280;59655;42.590;23.364;2023-03-01T06:42:40;91856.84;;;6.66
71807;BMP280;59655;42.590;23.364;2023-03-01T06:45:07;91859.78;;;6.63
71807;BMP280;59655;42.590;23.364;2023-03-01T06:47:33;91867.19;;;6.64
71807;BMP280;59655;42.590;23.364;2023-03-01T06:50:00;91865.69;;;6.69
71807;BMP280;59655;42.590;23.364;2023-03-01T06:52:25;91863.06;;;6.69
71807;BMP280;59655;42.590;23.364;2023-03-01T06:54:51;91867.84;;;6.70
71807;BMP280;59655;42.590;23.364;2023-03-01T06:57:16;91871.19;;;6.71
71807;BMP280;59655;42.590;23.364;2023-03-01T06:59:43;91864.22;;;6.74
71807;BMP280;59655;42.590;23.364;2023-03-01T07:02:13;91866.28;;;6.81
71807;BMP280;59655;42.590;23.364;2023-03-01T07:04:39;91867.28;;;6.78
71807;BMP280;59655;42.590;23.364;2023-03-01T07:07:05;91869.41;;;6.79
71807;BMP280;59655;42.590;23.364;2023-03-01T07:09:32;91862.22;;;6.80
71807;BMP280;59655;42.590;23.364;2023-03-01T07:11:57;91862.09;;;6.72
71807;BMP280;59655;42.590;23.364;2023-03-01T07:14:23;91863.72;;;6.75
71807;BMP280;59655;42.590;23.364;2023-03-01T07:16:51;91862.44;;;6.82
71807;BMP280;59655;42.590;23.364;2023-03-01T07:19:19;91855.69;;;6.86
71807;BMP280;59655;42.590;23.364;2023-03-01T07:21:44;91854.69;;;6.89
71807;BMP280;59655;42.590;23.364;2023-03-01T07:24:10;91857.13;;;6.87
71807;BMP280;59655;42.590;23.364;2023-03-01T07:26:36;91854.25;;;6.85
71807;BMP280;59655;42.590;23.364;2023-03-01T07:29:03;91850.13;;;6.90
71807;BMP280;59655;42.590;23.364;2023-03-01T07:31:29;91851.03;;;6.93
71807;BMP280;59655;42.590;23.364;2023-03-01T07:33:56;91850.75;;;6.96
71807;BMP280;59655;42.590;23.364;2023-03-01T07:36:21;91849.78;;;6.99
71807;BMP280;59655;42.590;23.364;2023-03-01T07:38:47;91855.06;;;6.99
71807;BMP280;59655;42.590;23.364;2023-03-01T07:41:12;91845.25;;;6.94
71807;BMP280;59655;42.590;23.364;2023-03-01T07:43:38;91847.84;;;7.00
71807;BMP280;59655;42.590;23.364;2023-03-01T07:46:04;91847.34;;;7.01
71807;BMP280;59655;42.590;23.364;2023-03-01T07:48:30;91845.41;;;7.02
71807;BMP280;59655;42.590;23.364;2023-03-01T07:51:00;91843.19;;;7.06
71807;BMP280;59655;42.590;23.364;2023-03-01T07:53:27;91842.44;;;7.11
71807;BMP280;59655;42.590;23.364;2023-03-01T07:56:07;91838.06;;;7.14
71807;BMP280;59655;42.590;23.364;2023-03-01T07:58:38;91823.88;;;7.17
71807;BMP280;59655;42.590;23.364;2023-03-01T08:01:05;91825.50;;;7.20
71807;BMP280;59655;42.590;23.364;2023-03-01T08:03:31;91826.22;;;7.20
71807;BMP280;59655;42.590;23.364;2023-03-01T08:05:59;91824.50;;;7.23
71807;BMP280;59655;42.590;23.364;2023-03-01T08:08:25;91821.59;;;7.26
71807;BMP280;59655;42.590;23.364;2023-03-01T08:10:50;91819.94;;;7.23
71807;BMP280;59655;42.590;23.364;2023-03-01T08:13:16;91819.22;;;7.23
71807;BMP280;59655;42.590;23.364;2023-03-01T08:15:47;91822.78;;;7.25
71807;BMP280;59655;42.590;23.364;2023-03-01T08:18:13;91818.97;;;7.26
71807;BMP280;59655;42.590;23.364;2023-03-01T08:20:38;91821.66;;;7.21
71807;BMP280;59655;42.590;23.364;2023-03-01T08:23:04;91819.94;;;7.23
71807;BMP280;59655;42.590;23.364;2023-03-01T08:25:29;91831.72;;;7.22
71807;BMP280;59655;42.590;23.364;2023-03-01T08:27:55;91828.81;;;7.26
71807;BMP280;59655;42.590;23.364;2023-03-01T08:30:20;91829.69;;;7.28
71807;BMP280;59655;42.590;23.364;2023-03-01T08:32:46;91828.06;;;7.25
71807;BMP280;59655;42.590;23.364;2023-03-01T08:35:11;91829.69;;;7.28
71807;BMP280;59655;42.590;23.364;2023-03-01T08:37:37;91824.63;;;7.30
71807;BMP280;59655;42.590;23.364;2023-03-01T08:40:02;91832.75;;;7.32
71807;BMP280;59655;42.590;23.364;2023-03-01T08:42:32;91825.84;;;7.29
71807;BMP280;59655;42.590;23.364;2023-03-01T08:44:58;91828.06;;;7.25
71807;BMP280;59655;42.590;23.364;2023-03-01T08:47:23;91824.41;;;7.28
71807;BMP280;59655;42.590;23.364;2023-03-01T08:49:50;91823.72;;;7.28
71807;BMP280;59655;42.590;23.364;2023-03-01T08:52:15;91822.59;;;7.23
71807;BMP280;59655;42.590;23.364;2023-03-01T08:54:41;91831.94;;;7.24
71807;BMP280;59655;42.590;23.364;2023-03-01T08:57:06;91828.88;;;7.20
71807;BMP280;59655;42.590;23.364;2023-03-01T08:59:32;91825.34;;;7.31
71807;BMP280;59655;42.590;23.364;2023-03-01T09:02:03;91824.41;;;7.28
71807;BMP280;59655;42.590;23.364;2023-03-01T09:04:28;91828.94;;;7.33
71807;BMP280;59655;42.590;23.364;2023-03-01T09:06:54;91823.59;;;7.39
71807;BMP280;59655;42.590;23.364;2023-03-01T09:09:19;91829.34;;;7.38
71807;BMP280;59655;42.590;23.364;2023-03-01T09:11:46;91839.41;;;7.39
71807;BMP280;59655;42.590;23.364;2023-03-01T09:14:14;91837.28;;;7.38
71807;BMP280;59655;42.590;23.364;2023-03-01T09:16:41;91837.75;;;7.36
71807;BMP280;59655;42.590;23.364;2023-03-01T09:19:09;91824.56;;;7.36
71807;BMP280;59655;42.590;23.364;2023-03-01T09:21:34;91828.13;;;7.39
71807;BMP280;59655;42.590;23.364;2023-03-01T09:24:00;91830.13;;;7.32
71807;BMP280;59655;42.590;23.364;2023-03-01T09:26:25;91824.13;;;7.32
71807;BMP280;59655;42.590;23.364;2023-03-01T09:28:53;91822.69;;;7.31
71807;BMP280;59655;42.590;23.364;2023-03-01T09:31:21;91821.50;;;7.32
71807;BMP280;59655;42.590;23.364;2023-03-01T09:33:48;91823.19;;;7.29
71807;BMP280;59655;42.590;23.364;2023-03-01T09:36:17;91821.22;;;7.36
71807;BMP280;59655;42.590;23.364;2023-03-01T09:38:42;91826.28;;;7.33
71807;BMP280;59655;42.590;23.364;2023-03-01T09:47:11;91810.78;;;7.43
71807;BMP280;59655;42.590;23.364;2023-03-01T09:49:43;91810.78;;;7.43
71807;BMP280;59655;42.590;23.364;2023-03-01T09:55:15;91805.09;;;7.39
71807;BMP280;59655;42.590;23.364;2023-03-01T09:57:47;91811.06;;;7.40
71807;BMP280;59655;42.590;23.364;2023-03-01T10:00:30;91800.50;;;7.40
71807;BMP280;59655;42.590;23.364;2023-03-01T10:03:14;91806.22;;;7.44
71807;BMP280;59655;42.590;23.364;2023-03-01T10:08:24;91798.22;;;7.49
71807;BMP280;59655;42.590;23.364;2023-03-01T10:10:51;91797.31;;;7.47
71807;BMP280;59655;42.590;23.364;2023-03-01T10:13:23;91797.06;;;7.45
71807;BMP280;59655;42.590;23.364;2023-03-01T10:15:54;91799.41;;;7.48
71807;BMP280;59655;42.590;23.364;2023-03-01T10:18:26;91793.66;;;7.50
71807;BMP280;59655;42.590;23.364;2023-03-01T10:23:23;91789.06;;;7.50
71807;BMP280;59655;42.590;23.364;2023-03-01T10:26:33;91785.41;;;7.53
71807;BMP280;59655;42.590;23.364;2023-03-01T10:31:13;91786.06;;;7.60
71807;BMP280;59655;42.590;23.364;2023-03-01T10:33:40;91785.34;;;7.59
71807;BMP280;59655;42.590;23.364;2023-03-01T10:36:06;91783.09;;;7.63
71807;BMP280;59655;42.590;23.364;2023-03-01T10:38:50;91772.03;;;7.65
71807;BMP280;59655;42.590;23.364;2023-03-01T10:41:18;91768.81;;;7.72
71807;BMP280;59655;42.590;23.364;2023-03-01T10:46:27;91763.63;;;7.80
71807;BMP280;59655;42.590;23.364;2023-03-01T10:51:42;91759.38;;;7.90
71807;BMP280;59655;42.590;23.364;2023-03-01T10:54:22;91762.31;;;7.86
71807;BMP280;59655;42.590;23.364;2023-03-01T10:56:55;91754.78;;;7.90
71807;BMP280;59655;42.590;23.364;2023-03-01T10:59:33;91763.22;;;7.89
71807;BMP280;59655;42.590;23.364;2023-03-01T11:04:27;91756.72;;;7.90
71807;BMP280;59655;42.590;23.364;2023-03-01T11:07:00;91759.88;;;7.88
71807;BMP280;59655;42.590;23.364;2023-03-01T11:09:31;91763.94;;;7.89
71807;BMP280;59655;42.590;23.364;2023-03-01T11:12:03;91763.53;;;7.85
71807;BMP280;59655;42.590;23.364;2023-03-01T11:14:36;91763.53;;;7.85
71807;BMP280;59655;42.590;23.364;2023-03-01T11:19:37;91762.91;;;7.79
71807;BMP280;59655;42.590;23.364;2023-03-01T11:22:14;91763.41;;;7.78
71807;BMP280;59655;42.590;23.364;2023-03-01T11:24:46;91767.28;;;7.77
71807;BMP280;59655;42.590;23.364;2023-03-01T11:27:32;91764.47;;;7.74
71807;BMP280;59655;42.590;23.364;2023-03-01T11:30:05;91763.75;;;7.74
71807;BMP280;59655;42.590;23.364;2023-03-01T11:35:31;91755.09;;;7.73
71807;BMP280;59655;42.590;23.364;2023-03-01T12:10:51;91730.94;;;7.83
71807;BMP280;59655;42.590;23.364;2023-03-01T12:33:37;91729.59;;;7.89
71807;BMP280;59655;42.590;23.364;2023-03-01T12:46:01;91719.13;;;7.97
71807;BMP280;59655;42.590;23.364;2023-03-01T12:51:05;91710.69;;;7.99
71807;BMP280;59655;42.590;23.364;2023-03-01T12:53:35;91706.63;;;7.97
71807;BMP280;59655;42.590;23.364;2023-03-01T12:56:06;91711.41;;;7.99
71807;BMP280;59655;42.590;23.364;2023-03-01T13:10:06;91710.50;;;7.96
71807;BMP280;59655;42.590;23.364;2023-03-01T13:12:48;91707.16;;;7.96
71807;BMP280;59655;42.590;23.364;2023-03-01T13:20:17;91707.66;;;7.81
71807;BMP280;59655;42.590;23.364;2023-03-01T13:22:45;91708.16;;;7.93
71807;BMP280;59655;42.590;23.364;2023-03-01T13:25:17;91715.16;;;7.90
71807;BMP280;59655;42.590;23.364;2023-03-01T13:27:43;91709.38;;;7.92
71807;BMP280;59655;42.590;23.364;2023-03-01T13:35:54;91694.44;;;7.94
71807;BMP280;59655;42.590;23.364;2023-03-01T13:38:38;91714.38;;;7.95
71807;BMP280;59655;42.590;23.364;2023-03-01T13:41:04;91702.38;;;7.94
71807;BMP280;59655;42.590;23.364;2023-03-01T13:43:38;91701.34;;;7.97
71807;BMP280;59655;42.590;23.364;2023-03-01T13:46:10;91696.78;;;7.98
71807;BMP280;59655;42.590;23.364;2023-03-01T13:48:38;91701.56;;;8.00
71807;BMP280;59655;42.590;23.364;2023-03-01T13:51:08;91699.94;;;7.96
71807;BMP280;59655;42.590;23.364;2023-03-01T13:53:36;91696.78;;;7.98
71807;BMP280;59655;42.590;23.364;2023-03-01T13:56:10;91698.19;;;7.99
71807;BMP280;59655;42.590;23.364;2023-03-01T13:58:50;91698.13;;;7.91
71807;BMP280;59655;42.590;23.364;2023-03-01T14:01:23;91695.69;;;7.93
71807;BMP280;59655;42.590;23.364;2023-03-01T14:03:49;91689.88;;;7.95
71807;BMP280;59655;42.590;23.364;2023-03-01T14:06:17;91697.59;;;7.93
71807;BMP280;59655;42.590;23.364;2023-03-01T14:08:46;91698.53;;;7.95
71807;BMP280;59655;42.590;23.364;2023-03-01T14:19:24;91694.03;;;7.90
71807;BMP280;59655;42.590;23.364;2023-03-01T14:22:23;91696.19;;;7.92
71807;BMP280;59655;42.590;23.364;2023-03-01T14:24:57;91693.34;;;7.90
71807;BMP280;59655;42.590;23.364;2023-03-01T14:27:26;91702.25;;;7.87
71807;BMP280;59655;42.590;23.364;2023-03-01T14:30:09;91690.09;;;7.84
71807;BMP280;59655;42.590;23.364;2023-03-01T14:32:35;91695.28;;;7.89
71807;BMP280;59655;42.590;23.364;2023-03-01T14:35:00;91690.00;;;7.89
71807;BMP280;59655;42.590;23.364;2023-03-01T14:37:33;91694.16;;;7.85
71807;BMP280;59655;42.590;23.364;2023-03-01T14:40:01;91691.31;;;7.83
71807;BMP280;59655;42.590;23.364;2023-03-01T14:42:31;91689.91;;;7.82
71807;BMP280;59655;42.590;23.364;2023-03-01T14:45:00;91693.53;;;7.79
71807;BMP280;59655;42.590;23.364;2023-03-01T14:47:32;91686.63;;;7.75
71807;BMP280;59655;42.590;23.364;2023-03-01T14:50:02;91691.72;;;7.73
71807;BMP280;59655;42.590;23.364;2023-03-01T14:52:35;91693.31;;;7.77
71807;BMP280;59655;42.590;23.364;2023-03-01T14:55:07;91692.44;;;7.74
71807;BMP280;59655;42.590;23.364;2023-03-01T14:57:42;91694.97;;;7.66
71807;BMP280;59655;42.590;23.364;2023-03-01T15:00:25;91691.59;;;7.66
71807;BMP280;59655;42.590;23.364;2023-03-01T15:02:53;91696.97;;;7.60
71807;BMP280;59655;42.590;23.364;2023-03-01T15:05:29;91694.97;;;7.66
71807;BMP280;59655;42.590;23.364;2023-03-01T15:07:55;91688.25;;;7.39
71807;BMP280;59655;42.590;23.364;2023-03-01T15:10:25;91682.97;;;7.52
71807;BMP280;59655;42.590;23.364;2023-03-01T15:12:51;91683.16;;;7.54
71807;BMP280;59655;42.590;23.364;2023-03-01T15:15:45;91683.28;;;7.48
71807;BMP280;59655;42.590;23.364;2023-03-01T15:20:42;91680.00;;;7.42
71807;BMP280;59655;42.590;23.364;2023-03-01T15:25:44;91684.47;;;7.34
71807;BMP280;59655;42.590;23.364;2023-03-01T15:28:18;91674.84;;;7.37
71807;BMP280;59655;42.590;23.364;2023-03-01T15:30:53;91679.09;;;7.26
71807;BMP280;59655;42.590;23.364;2023-03-01T15:33:29;91682.84;;;7.31
71807;BMP280;59655;42.590;23.364;2023-03-01T15:36:01;91672.78;;;7.29
71807;BMP280;59655;42.590;23.364;2023-03-01T15:40:59;91664.84;;;7.29
71807;BMP280;59655;42.590;23.364;2023-03-01T15:46:03;91680.28;;;7.25
71807;BMP280;59655;42.590;23.364;2023-03-01T15:48:29;91673.69;;;7.19
71807;BMP280;59655;42.590;23.364;2023-03-01T15:50:58;91678.94;;;7.05
71807;BMP280;59655;42.590;23.364;2023-03-01T15:53:26;91675.50;;;7.10
71807;BMP280;59655;42.590;23.364;2023-03-01T15:55:53;91671.34;;;7.15
71807;BMP280;59655;42.590;23.364;2023-03-01T15:58:21;91667.81;;;7.13
71807;BMP280;59655;42.590;23.364;2023-03-01T16:00:48;91663.44;;;7.15
71807;BMP280;59655;42.590;23.364;2023-03-01T16:03:16;91670.13;;;7.16
71807;BMP280;59655;42.590;23.364;2023-03-01T16:05:47;91671.44;;;7.09
71807;BMP280;59655;42.590;23.364;2023-03-01T16:08:13;91670.13;;;7.03
71807;BMP280;59655;42.590;23.364;2023-03-01T16:10:40;91671.44;;;7.09
71807;BMP280;59655;42.590;23.364;2023-03-01T16:13:05;91679.34;;;7.09
71807;BMP280;59655;42.590;23.364;2023-03-01T16:15:33;91668.09;;;7.09
71807;BMP280;59655;42.590;23.364;2023-03-01T16:18:02;91669.41;;;7.02
71807;BMP280;59655;42.590;23.364;2023-03-01T16:20:28;91668.38;;;7.05
71807;BMP280;59655;42.590;23.364;2023-03-01T16:22:57;91670.22;;;7.10
71807;BMP280;59655;42.590;23.364;2023-03-01T16:25:23;91674.34;;;7.06
71807;BMP280;59655;42.590;23.364;2023-03-01T16:27:50;91677.00;;;7.06
71807;BMP280;59655;42.590;23.364;2023-03-01T16:30:19;91670.72;;;7.09
71807;BMP280;59655;42.590;23.364;2023-03-01T16:32:46;91671.22;;;7.07
71807;BMP280;59655;42.590;23.364;2023-03-01T16:35:14;91673.44;;;7.03
71807;BMP280;59655;42.590;23.364;2023-03-01T16:37:40;91673.25;;;7.01
71807;BMP280;59655;42.590;23.364;2023-03-01T16:40:16;91670.41;;;6.99
71807;BMP280;59655;42.590;23.364;2023-03-01T16:42:41;91661.78;;;6.99
71807;BMP280;59655;42.590;23.364;2023-03-01T16:45:07;91660.78;;;7.02
71807;BMP280;59655;42.590;23.364;2023-03-01T16:47:34;91655.09;;;6.98